Time;durP1;ratioP1;P1;durP2;ratioP2;P2;SDS_P1;SDS_P2;PMS_P1;PMS_P2;Temp;Humidity;BMP_temperature;BMP_pressure;BME280_temperature;BME280_humidity;BME280_pressure;Samples;Min_cycle;Max_cycle;Signal;HPM_P1;HPM_P2
2021/12/25 00:02:23;;;;;;;15.65;12.43;;;;;;;6.13;95.15;99858.22;6221671;23;20027;-81
2021/12/25 00:04:53;;;;;;;17.00;12.68;;;;;;;6.19;95.43;99868.81;6221965;23;20039;-81
2021/12/25 00:07:20;;;;;;;17.88;13.02;;;;;;;6.22;95.37;99876.31;6223842;23;20017;-82
2021/12/25 00:09:47;;;;;;;18.48;13.77;;;;;;;6.17;94.72;99852.56;6223967;23;20017;-81
2021/12/25 00:12:17;;;;;;;20.30;14.75;;;;;;;6.07;95.31;99853.59;6221880;23;20023;-81
2021/12/25 00:14:50;;;;;;;20.80;13.82;;;;;;;6.08;95.81;99863.84;6223860;23;20017;-80
2021/12/25 00:17:33;;;;;;;20.05;13.82;;;;;;;6.18;95.34;99863.78;6223214;23;20607;-82
2021/12/25 00:20:02;;;;;;;15.52;11.10;;;;;;;6.20;95.31;99847.06;6219105;23;20028;-83
2021/12/25 00:22:35;;;;;;;20.27;14.02;;;;;;;6.11;95.22;99842.78;6230075;23;20023;-83
2021/12/25 00:28:57;;;;;;;18.50;13.13;;;;;;;6.08;94.69;99848.28;6159538;23;20021;-84
2021/12/25 00:31:45;;;;;;;20.55;14.55;;;;;;;6.19;95.33;99874.00;6231811;23;20024;-83
2021/12/25 00:34:39;;;;;;;18.48;14.10;;;;;;;6.12;95.12;99870.41;6229824;23;20023;-84
2021/12/25 00:37:37;;;;;;;18.50;13.70;;;;;;;6.01;94.84;99868.00;6229514;23;20043;-84
2021/12/25 00:45:58;;;;;;;17.00;13.10;;;;;;;6.11;95.16;99865.34;6229886;23;20020;-83
2021/12/25 00:48:46;;;;;;;19.10;13.18;;;;;;;5.98;94.56;99848.31;6238592;23;20104;-83
2021/12/25 00:51:17;;;;;;;15.85;12.25;;;;;;;6.05;94.77;99851.16;6238650;23;20039;-83
2021/12/25 00:54:15;;;;;;;16.30;11.55;;;;;;;6.06;93.82;99867.56;6239246;23;20032;-84
2021/12/25 01:00:17;;;;;;;13.63;11.23;;;;;;;6.09;94.15;99868.09;6223860;23;20021;-83
2021/12/25 01:02:54;;;;;;;13.63;11.43;;;;;;;6.16;94.15;99863.91;6227713;23;20036;-85
2021/12/25 01:05:46;;;;;;;12.20;10.65;;;;;;;6.04;93.72;99853.91;6233772;23;20017;-85
2021/12/25 01:08:31;;;;;;;14.38;11.75;;;;;;;6.03;93.63;99850.47;6224993;23;20091;-84
2021/12/25 01:11:12;;;;;;;15.85;13.02;;;;;;;6.06;93.91;99852.78;6234252;23;20004;-84
2021/12/25 01:13:58;;;;;;;15.85;11.05;;;;;;;6.01;93.71;99831.63;6227007;23;20012;-84
2021/12/25 01:17:10;;;;;;;14.90;11.60;;;;;;;6.10;93.58;99848.13;6222746;23;20050;-84
2021/12/25 01:19:55;;;;;;;18.48;13.00;;;;;;;5.94;93.77;99821.00;6222775;23;20052;-85
2021/12/25 01:31:33;;;;;;;13.77;11.30;;;;;;;5.88;94.14;99831.13;6102840;23;20022;-84
2021/12/25 01:37:15;;;;;;;15.07;11.68;;;;;;;5.72;94.13;99823.97;6214948;23;20048;-84
2021/12/25 01:40:11;;;;;;;15.32;11.90;;;;;;;5.83;94.09;99833.34;6224006;23;20410;-84
2021/12/25 01:48:49;;;;;;;15.13;11.32;;;;;;;5.90;93.25;99857.78;6228723;23;20039;-84
2021/12/25 01:51:20;;;;;;;15.93;11.52;;;;;;;5.68;93.58;99841.59;6223172;23;20047;-84
2021/12/25 01:53:51;;;;;;;14.15;10.98;;;;;;;5.75;93.80;99851.41;6223653;23;20012;-84
2021/12/25 01:56:26;;;;;;;14.88;11.10;;;;;;;5.78;93.45;99862.31;6223478;23;20012;-83
2021/12/25 01:59:08;;;;;;;14.48;10.63;;;;;;;5.79;92.75;99860.53;6222927;23;20028;-84
2021/12/25 02:01:54;;;;;;;14.45;9.52;;;;;;;5.84;92.85;99863.53;6223202;23;20032;-84
2021/12/25 02:04:32;;;;;;;15.77;10.18;;;;;;;5.80;92.50;99857.81;6222731;23;20016;-84
2021/12/25 02:07:10;;;;;;;13.02;9.80;;;;;;;5.68;92.60;99836.41;6222877;23;20027;-84
2021/12/25 02:09:43;;;;;;;12.73;9.80;;;;;;;5.78;92.72;99851.13;6224058;23;20093;-85
2021/12/25 02:12:32;;;;;;;;;;;;;;;5.79;92.95;99863.13;6225692;23;20025;-84
2021/12/25 02:15:22;;;;;;;13.50;10.48;;;;;;;5.66;93.57;99851.34;6222365;23;19927;-83
2021/12/25 02:18:10;;;;;;;13.32;10.25;;;;;;;5.68;93.38;99857.16;6226850;23;20047;-82
2021/12/25 02:20:47;;;;;;;12.15;9.75;;;;;;;5.70;93.10;99849.25;6236008;23;20109;-84
2021/12/25 02:23:18;;;;;;;12.90;9.80;;;;;;;5.63;92.67;99851.63;6239500;23;20021;-84
2021/12/25 02:25:46;;;;;;;12.43;9.73;;;;;;;5.54;92.48;99828.28;6239159;23;20055;-83
2021/12/25 02:28:19;;;;;;;11.93;8.85;;;;;;;5.64;91.40;99850.66;6235184;23;20056;-82
2021/12/25 02:30:50;;;;;;;12.43;9.05;;;;;;;5.58;91.66;99840.84;6237601;23;20027;-83
2021/12/25 02:33:19;;;;;;;11.32;9.13;;;;;;;5.56;91.31;99842.75;6237877;23;20027;-82
2021/12/25 02:35:56;;;;;;;10.95;8.98;;;;;;;5.39;91.75;99822.75;6236867;23;20015;-82
2021/12/25 02:38:23;;;;;;;11.23;8.73;;;;;;;5.46;91.63;99826.41;6237273;23;20005;-81
2021/12/25 02:40:50;;;;;;;11.65;9.23;;;;;;;5.49;91.90;99835.69;6240095;23;20172;-82
2021/12/25 02:43:21;;;;;;;11.52;8.95;;;;;;;5.51;92.21;99829.41;6232778;23;20068;-83
2021/12/25 02:45:48;;;;;;;11.98;9.68;;;;;;;5.40;92.44;99839.94;6227821;23;20009;-84
2021/12/25 02:48:17;;;;;;;15.50;10.38;;;;;;;5.42;93.23;99838.03;6225639;23;20016;-85
2021/12/25 02:50:47;;;;;;;15.52;11.23;;;;;;;5.40;93.04;99832.16;6225616;23;20029;-85
2021/12/25 02:53:20;;;;;;;13.30;9.18;;;;;;;5.45;93.33;99837.75;6225749;23;20404;-85
2021/12/25 02:55:59;;;;;;;12.68;9.77;;;;;;;5.28;92.99;99823.72;6225815;23;20559;-85
2021/12/25 02:58:26;;;;;;;14.20;10.02;;;;;;;5.43;93.08;99839.66;6219319;23;20096;-84
2021/12/25 03:01:00;;;;;;;12.20;9.82;;;;;;;5.49;92.54;99826.13;6227241;23;20071;-84
2021/12/25 03:03:31;;;;;;;11.45;8.93;;;;;;;5.39;93.07;99829.72;6221823;23;20046;-84
2021/12/25 03:05:58;;;;;;;12.20;9.57;;;;;;;5.38;93.79;99828.91;6222260;23;20040;-84
2021/12/25 03:08:30;;;;;;;14.35;10.35;;;;;;;5.36;93.77;99823.03;6230659;23;20017;-83
2021/12/25 03:11:13;;;;;;;12.10;9.48;;;;;;;5.34;94.06;99838.75;6234596;23;20012;-82
2021/12/25 03:13:57;;;;;;;;;;;;;;;5.27;94.53;99844.63;6231270;23;20016;-83
2021/12/25 03:17:00;;;;;;;11.38;9.40;;;;;;;5.24;94.97;99837.94;6229934;23;19931;-84
2021/12/25 03:19:36;;;;;;;13.57;9.63;;;;;;;5.13;94.99;99819.16;6220702;23;20027;-83
2021/12/25 03:22:16;;;;;;;14.20;9.88;;;;;;;5.16;94.80;99829.25;6220787;23;20016;-84
2021/12/25 03:24:50;;;;;;;13.45;10.20;;;;;;;5.16;94.59;99840.44;6221170;23;20019;-83
2021/12/25 03:27:26;;;;;;;13.15;9.73;;;;;;;4.98;95.22;99822.19;6221160;23;20348;-84
2021/12/25 03:30:00;;;;;;;11.88;9.30;;;;;;;5.13;95.64;99850.28;6222364;23;20012;-83
2021/12/25 03:32:32;;;;;;;13.13;9.88;;;;;;;5.04;95.00;99840.75;6220433;23;20023;-83
2021/12/25 03:35:05;;;;;;;13.05;9.93;;;;;;;4.98;95.70;99829.97;6220619;23;20016;-83
2021/12/25 03:37:44;;;;;;;12.90;9.65;;;;;;;4.95;95.40;99827.66;6223725;23;20016;-83
2021/12/25 03:40:45;;;;;;;14.93;10.05;;;;;;;4.94;95.50;99853.72;6221259;23;20023;-83
2021/12/25 03:43:27;;;;;;;14.73;10.48;;;;;;;4.82;95.06;99839.28;6225486;23;20016;-84
2021/12/25 03:46:11;;;;;;;14.05;10.68;;;;;;;4.86;95.61;99848.41;6228680;23;20027;-83
2021/12/25 03:49:14;;;;;;;15.57;10.85;;;;;;;4.76;95.39;99851.00;6224960;23;20071;-84
2021/12/25 03:57:58;;;;;;;16.52;11.32;;;;;;;4.68;96.50;99842.31;6229417;23;20511;-84
2021/12/25 04:00:58;;;;;;;;;;;;;;;;;;;;;
2021/12/25 04:04:16;;;;;;;16.83;12.10;;;;;;;4.54;96.61;99843.53;6229845;23;20023;-85
2021/12/25 04:06:58;;;;;;;18.55;12.07;;;;;;;4.59;97.26;99851.72;6233064;23;20020;-85
2021/12/25 04:09:33;;;;;;;16.65;11.90;;;;;;;4.50;96.94;99836.97;6223919;23;20103;-84
2021/12/25 04:15:08;;;;;;;16.60;12.13;;;;;;;4.50;97.22;99847.34;6216557;23;20052;-83
2021/12/25 04:17:37;;;;;;;17.98;12.07;;;;;;;4.40;96.83;99842.16;6224169;23;20413;-82
2021/12/25 04:20:07;;;;;;;17.77;12.38;;;;;;;4.37;96.48;99846.78;6226405;23;20043;-84
2021/12/25 04:22:42;;;;;;;16.92;12.35;;;;;;;4.39;97.29;99857.84;6229760;23;20051;-84
2021/12/25 04:25:11;;;;;;;18.10;12.68;;;;;;;4.43;96.64;99846.25;6229195;23;20072;-85
2021/12/25 04:28:12;;;;;;;17.02;12.25;;;;;;;4.42;96.48;99854.97;6225419;23;20008;-84
2021/12/25 04:31:36;;;;;;;18.10;12.60;;;;;;;4.14;96.51;99843.63;6232680;23;20115;-83
2021/12/25 04:47:46;;;;;;;19.23;12.90;;;;;;;4.34;97.04;99868.59;6220842;23;20104;-84
2021/12/25 05:06:00;;;;;;;27.48;16.70;;;;;;;4.06;97.73;99890.91;6195087;23;20016;-81
2021/12/25 05:15:46;;;;;;;28.60;17.25;;;;;;;3.87;97.30;99881.31;6097367;23;20077;-82
2021/12/25 05:18:29;;;;;;;27.77;18.20;;;;;;;3.83;97.15;99885.09;6106046;23;20085;-83
2021/12/25 05:21:01;;;;;;;28.02;18.05;;;;;;;3.83;97.53;99889.44;6220340;23;20467;-81
2021/12/25 05:24:19;;;;;;;26.80;17.83;;;;;;;3.61;97.67;99856.84;6221485;23;20017;-81
2021/12/25 05:27:00;;;;;;;31.00;19.02;;;;;;;3.69;97.06;99875.13;6101241;23;20023;-82
2021/12/25 05:33:15;;;;;;;27.33;17.08;;;;;;;3.53;97.75;99873.00;6005815;23;20046;-81
2021/12/25 05:35:58;;;;;;;28.05;17.80;;;;;;;3.60;97.32;99881.91;6097200;23;20014;-80
2021/12/25 05:38:47;;;;;;;30.80;17.58;;;;;;;3.62;97.90;99889.53;6107591;23;20017;-80
2021/12/25 05:42:23;;;;;;;30.55;17.58;;;;;;;3.57;98.16;99892.50;6223161;23;20020;-81
2021/12/25 05:45:51;;;;;;;32.75;19.65;;;;;;;3.63;98.57;99896.34;6174115;23;20032;-80
2021/12/25 05:54:53;;;;;;;42.38;24.63;;;;;;;3.25;98.46;99871.13;6190423;23;20012;-82
2021/12/25 05:58:07;;;;;;;44.92;26.58;;;;;;;3.21;98.33;99859.38;6215513;23;20013;-80
2021/12/25 06:01:15;;;;;;;;;;;;;;;;;;;;;
2021/12/25 06:04:17;;;;;;;45.55;27.52;;;;;;;3.13;98.41;99900.56;6153629;23;20021;-81
2021/12/25 06:07:13;;;;;;;42.90;26.27;;;;;;;3.06;98.08;99889.91;6195749;23;20017;-83
2021/12/25 06:10:18;;;;;;;46.25;27.33;;;;;;;2.98;98.35;99872.44;6162678;23;20096;-82
2021/12/25 06:13:37;;;;;;;44.83;27.30;;;;;;;3.03;97.84;99891.91;6195789;23;20068;-82
2021/12/25 06:16:50;;;;;;;46.90;26.80;;;;;;;3.06;98.64;99899.41;6116470;23;20018;-82
2021/12/25 06:19:28;;;;;;;43.57;26.53;;;;;;;3.05;98.03;99927.03;6206223;23;20076;-82
2021/12/25 06:22:00;;;;;;;42.97;26.05;;;;;;;2.98;98.26;99913.78;6220935;23;20457;-79
2021/12/25 06:24:32;;;;;;;42.93;26.03;;;;;;;2.99;98.16;99904.25;6183655;23;20028;-83
2021/12/25 06:27:03;;;;;;;40.70;24.55;;;;;;;3.01;97.75;99933.41;6188828;23;20241;-79
2021/12/25 06:29:30;;;;;;;38.20;23.98;;;;;;;2.91;97.59;99916.97;6184607;23;20412;-78
2021/12/25 06:31:59;;;;;;;39.15;23.35;;;;;;;2.91;97.22;99922.97;6187247;23;20013;-80
2021/12/25 06:34:26;;;;;;;35.17;22.60;;;;;;;2.92;97.60;99929.78;6187854;23;20017;-81
2021/12/25 06:36:53;;;;;;;34.13;21.90;;;;;;;2.96;98.25;99941.50;6188387;23;20024;-80
2021/12/25 06:39:19;;;;;;;30.80;19.98;;;;;;;2.98;97.71;99949.97;6187821;23;20457;-81
2021/12/25 06:41:47;;;;;;;33.80;21.33;;;;;;;2.91;97.61;99953.97;6185533;23;20064;-79
2021/12/25 06:44:13;;;;;;;32.00;20.40;;;;;;;2.87;97.97;99946.59;6184715;23;20048;-78
2021/12/25 06:46:40;;;;;;;30.77;20.08;;;;;;;2.85;97.38;99954.47;6181759;23;20412;-78
2021/12/25 06:49:08;;;;;;;32.10;20.98;;;;;;;2.83;97.45;99958.97;6182683;23;20048;-79
2021/12/25 06:51:35;;;;;;;31.38;19.88;;;;;;;2.81;97.63;99960.84;6182549;23;20094;-79
2021/12/25 06:54:03;;;;;;;32.05;19.90;;;;;;;2.75;97.75;99957.94;6181976;23;20040;-79
2021/12/25 06:56:30;;;;;;;32.08;20.70;;;;;;;2.70;97.95;99955.72;6181595;23;20021;-79
2021/12/25 06:58:56;;;;;;;32.90;19.13;;;;;;;2.72;97.63;99961.59;6182352;23;20055;-79
2021/12/25 07:01:23;;;;;;;31.90;20.73;;;;;;;2.76;97.79;99957.81;6184885;23;20049;-79
2021/12/25 07:03:50;;;;;;;32.60;20.00;;;;;;;2.68;97.08;99965.34;6183719;23;20043;-79
2021/12/25 07:06:18;;;;;;;32.00;20.67;;;;;;;2.70;97.19;99971.22;6183271;23;20021;-78
2021/12/25 07:08:45;;;;;;;31.88;20.83;;;;;;;2.61;97.17;99972.75;6183417;23;20063;-79
2021/12/25 07:11:11;;;;;;;30.75;20.48;;;;;;;2.66;97.58;99975.00;6181936;23;20075;-79
2021/12/25 07:13:41;;;;;;;30.48;19.77;;;;;;;2.61;97.25;99966.78;6182749;23;20020;-79
2021/12/25 07:16:07;;;;;;;30.55;19.85;;;;;;;2.62;97.16;99978.75;6180897;23;20021;-79
2021/12/25 07:18:34;;;;;;;31.88;20.13;;;;;;;2.59;97.17;99979.00;6181993;23;20044;-78
2021/12/25 07:21:00;;;;;;;32.83;20.15;;;;;;;2.62;97.36;99987.31;6186070;23;20071;-80
2021/12/25 07:23:28;;;;;;;30.77;20.00;;;;;;;2.63;97.29;99995.91;6186507;23;20060;-80
2021/12/25 07:25:55;;;;;;;30.85;20.20;;;;;;;2.60;97.31;100006.47;6187906;23;20055;-80
2021/12/25 07:28:22;;;;;;;28.45;19.08;;;;;;;2.63;97.73;100003.66;6188528;23;20036;-79
2021/12/25 07:30:50;;;;;;;31.00;19.15;;;;;;;2.54;97.50;99996.59;6189848;23;20065;-79
2021/12/25 07:33:17;;;;;;;30.05;19.33;;;;;;;2.56;97.86;100002.47;6189552;23;20318;-81
2021/12/25 07:35:43;;;;;;;30.60;19.00;;;;;;;2.59;97.66;100002.25;6189912;23;20041;-80
2021/12/25 07:38:10;;;;;;;29.85;19.27;;;;;;;2.52;97.54;100006.25;6189574;23;20063;-80
2021/12/25 07:40:38;;;;;;;27.90;19.17;;;;;;;2.55;97.68;100019.72;6189836;23;20429;-79
2021/12/25 07:43:05;;;;;;;28.52;18.52;;;;;;;2.55;98.11;100013.75;6189420;23;20056;-79
2021/12/25 07:45:32;;;;;;;26.08;16.90;;;;;;;2.54;97.56;100017.28;6189763;23;20056;-80
2021/12/25 07:48:01;;;;;;;27.08;16.88;;;;;;;2.60;97.85;100021.97;6191053;23;20052;-79
2021/12/25 07:50:30;;;;;;;25.60;17.83;;;;;;;2.53;97.58;100023.38;6198469;23;20020;-79
2021/12/25 07:52:57;;;;;;;25.90;16.60;;;;;;;2.49;97.33;100029.72;6189507;23;20099;-78
2021/12/25 07:55:25;;;;;;;22.63;14.77;;;;;;;2.51;96.91;100022.66;6187479;23;20041;-79
2021/12/25 07:57:53;;;;;;;23.13;16.00;;;;;;;2.52;97.18;100034.66;6187636;23;20055;-78
2021/12/25 08:00:19;;;;;;;22.63;15.45;;;;;;;2.42;96.81;100034.53;6186987;23;20053;-79
2021/12/25 08:02:46;;;;;;;23.45;15.77;;;;;;;2.43;97.22;100040.50;6188473;23;20021;-79
2021/12/25 08:05:14;;;;;;;23.77;15.55;;;;;;;2.40;97.80;100035.59;6188599;23;20096;-79
2021/12/25 08:07:41;;;;;;;24.90;16.15;;;;;;;2.43;97.92;100040.50;6187727;23;20060;-80
2021/12/25 08:10:13;;;;;;;22.08;14.98;;;;;;;2.39;97.42;100037.34;6188776;23;20044;-81
2021/12/25 08:12:41;;;;;;;22.27;14.65;;;;;;;2.43;97.45;100045.69;6186494;23;20021;-78
2021/12/25 08:15:10;;;;;;;21.33;14.68;;;;;;;2.43;96.81;100040.50;6185761;23;20017;-78
2021/12/25 08:17:38;;;;;;;20.33;13.95;;;;;;;2.44;97.28;100044.75;6186093;23;20116;-78
2021/12/25 08:20:06;;;;;;;22.08;14.38;;;;;;;2.41;96.95;100047.56;6184845;23;20049;-78
2021/12/25 08:22:32;;;;;;;19.45;13.32;;;;;;;2.48;97.00;100056.47;6186814;23;20129;-78
2021/12/25 08:24:59;;;;;;;22.23;14.57;;;;;;;2.45;97.07;100054.13;6186636;23;20092;-78
2021/12/25 08:27:26;;;;;;;23.27;14.73;;;;;;;2.38;96.35;100047.78;6186506;23;20096;-79
2021/12/25 08:29:54;;;;;;;23.50;14.52;;;;;;;2.48;97.00;100056.47;6185170;23;20376;-80
2021/12/25 08:32:22;;;;;;;21.30;14.15;;;;;;;2.50;96.43;100068.34;6186548;23;20542;-78
2021/12/25 08:34:48;;;;;;;20.27;13.63;;;;;;;2.48;96.83;100061.66;6187807;23;20653;-79
2021/12/25 08:37:15;;;;;;;21.83;13.38;;;;;;;2.46;96.49;100059.19;6186817;23;20096;-79
2021/12/25 08:39:42;;;;;;;19.70;13.25;;;;;;;2.52;96.76;100066.47;6185172;23;20021;-80
2021/12/25 08:42:10;;;;;;;20.20;12.98;;;;;;;2.48;96.58;100077.13;6180312;23;20100;-81
2021/12/25 08:44:41;;;;;;;20.08;13.50;;;;;;;2.41;96.10;100065.63;6187789;23;20028;-79
2021/12/25 08:47:13;;;;;;;18.13;12.57;;;;;;;2.39;96.08;100075.25;6188405;23;20322;-79
2021/12/25 08:49:42;;;;;;;19.25;12.82;;;;;;;2.42;95.50;100077.59;6188047;23;20020;-82
2021/12/25 08:52:12;;;;;;;20.10;12.57;;;;;;;2.39;96.22;100067.50;6188254;23;20027;-79
2021/12/25 08:54:39;;;;;;;19.83;12.95;;;;;;;2.43;95.72;100082.66;6187758;23;20024;-80
2021/12/25 08:57:08;;;;;;;19.70;12.82;;;;;;;2.41;96.12;100086.28;6188057;23;20021;-80
2021/12/25 08:59:37;;;;;;;18.00;12.52;;;;;;;2.33;96.33;100087.72;6188934;23;20388;-80
2021/12/25 09:02:08;;;;;;;19.75;13.38;;;;;;;2.42;96.08;100091.34;6188927;23;20017;-81
2021/12/25 09:04:37;;;;;;;20.25;13.70;;;;;;;2.43;96.10;100089.59;6189536;23;20044;-80
2021/12/25 09:07:06;;;;;;;21.33;12.60;;;;;;;2.44;96.09;100094.63;6189845;23;20048;-80
2021/12/25 09:09:33;;;;;;;20.58;13.52;;;;;;;2.48;96.11;100102.97;6189376;23;20052;-80
2021/12/25 09:12:00;;;;;;;20.27;13.05;;;;;;;2.45;95.84;100095.44;6188928;23;20029;-79
2021/12/25 09:14:27;;;;;;;20.63;13.13;;;;;;;2.47;96.10;100106.47;6187826;23;20052;-79
2021/12/25 09:16:54;;;;;;;18.38;13.07;;;;;;;2.49;96.08;100112.34;6187931;23;20087;-77
2021/12/25 09:19:21;;;;;;;24.75;17.73;;;;;;;2.46;95.93;100112.59;6185866;23;20021;-79
2021/12/25 09:21:47;;;;;;;18.75;13.00;;;;;;;2.57;95.91;100110.00;6186308;23;20029;-80
2021/12/25 09:24:16;;;;;;;17.90;12.77;;;;;;;2.55;96.29;100112.72;6185691;23;20024;-79
2021/12/25 09:26:43;;;;;;;19.65;12.82;;;;;;;2.55;96.05;100117.06;6185079;23;20096;-79
2021/12/25 09:29:10;;;;;;;19.00;13.02;;;;;;;2.63;95.88;100115.53;6186005;23;20317;-79
2021/12/25 09:31:37;;;;;;;18.50;12.10;;;;;;;2.69;95.84;100126.34;6184814;23;20680;-79
2021/12/25 09:34:04;;;;;;;18.60;12.23;;;;;;;2.59;95.85;100119.28;6189195;23;20045;-80
2021/12/25 09:36:31;;;;;;;17.10;12.55;;;;;;;2.64;95.31;100126.69;6185668;23;20017;-79
2021/12/25 09:38:58;;;;;;;16.85;11.85;;;;;;;2.64;95.63;100131.84;6187437;23;20045;-80
2021/12/25 09:41:26;;;;;;;17.42;12.30;;;;;;;2.68;95.54;100128.09;6190063;23;20051;-79
2021/12/25 09:43:53;;;;;;;18.95;12.70;;;;;;;2.76;95.73;100125.75;6189002;23;20063;-80
2021/12/25 09:46:21;;;;;;;16.42;11.90;;;;;;;2.73;95.30;100125.16;6188377;23;20045;-80
2021/12/25 09:48:50;;;;;;;16.42;11.52;;;;;;;2.78;95.28;100117.88;6189140;23;20052;-80
2021/12/25 09:51:17;;;;;;;21.23;15.20;;;;;;;2.75;95.06;100123.28;6190245;23;20048;-80
2021/12/25 09:53:54;;;;;;;21.00;15.10;;;;;;;2.90;94.28;100128.06;6190436;23;20028;-80
2021/12/25 09:56:21;;;;;;;18.13;12.50;;;;;;;3.08;93.75;100135.34;6189688;23;20021;-79
2021/12/25 09:58:49;;;;;;;16.05;11.60;;;;;;;3.00;94.42;100138.53;6189119;23;20053;-81
2021/12/25 10:01:32;;;;;;;16.23;11.45;;;;;;;3.08;93.68;100145.69;6190606;23;20450;-81
2021/12/25 10:04:00;;;;;;;19.30;12.23;;;;;;;2.97;94.48;100143.91;6195516;23;20055;-80
2021/12/25 10:06:32;;;;;;;16.30;11.02;;;;;;;3.05;94.68;100148.50;6189593;23;20049;-80
2021/12/25 10:08:59;;;;;;;16.30;11.50;;;;;;;3.05;93.35;100149.31;6187699;23;20032;-80
2021/12/25 10:11:26;;;;;;;16.15;12.10;;;;;;;3.04;93.84;100152.84;6187472;23;20516;-78
2021/12/25 10:13:56;;;;;;;13.43;9.98;;;;;;;2.97;93.67;100149.91;6187213;23;20096;-81
2021/12/25 10:16:25;;;;;;;14.68;10.70;;;;;;;2.92;93.47;100146.84;6187097;23;20036;-80
2021/12/25 10:18:54;;;;;;;14.70;11.05;;;;;;;2.91;93.55;100145.22;6185416;23;20071;-79
2021/12/25 10:21:23;;;;;;;13.18;10.13;;;;;;;2.97;93.69;100139.56;6187675;23;20024;-81
2021/12/25 10:24:06;;;;;;;14.02;9.95;;;;;;;2.91;92.70;100145.22;6188098;23;20021;-80
2021/12/25 10:26:34;;;;;;;14.50;10.75;;;;;;;2.91;93.76;100139.22;6184551;23;20025;-79
2021/12/25 10:29:16;;;;;;;15.60;11.15;;;;;;;2.90;93.86;100141.00;6187199;23;20013;-80
2021/12/25 10:31:43;;;;;;;16.20;11.15;;;;;;;3.02;94.13;100140.97;6188133;23;20021;-80
2021/12/25 10:34:14;;;;;;;16.10;11.15;;;;;;;3.07;93.41;100133.69;6186135;23;20029;-81
2021/12/25 10:36:41;;;;;;;14.27;10.70;;;;;;;2.97;93.38;100133.59;6186080;23;20071;-79
2021/12/25 10:39:10;;;;;;;14.18;10.60;;;;;;;2.91;92.68;100136.66;6186152;23;20075;-79
2021/12/25 10:41:40;;;;;;;14.40;10.70;;;;;;;2.93;93.31;100138.16;6185913;23;20052;-78
2021/12/25 10:44:17;;;;;;;15.35;11.27;;;;;;;2.95;93.46;100127.72;6185928;23;20021;-80
2021/12/25 10:46:49;;;;;;;14.60;11.10;;;;;;;3.03;92.99;100137.47;6185548;23;20025;-79
2021/12/25 10:49:17;;;;;;;15.20;11.05;;;;;;;3.09;93.04;100126.66;6185370;23;20021;-79
2021/12/25 10:51:44;;;;;;;15.15;11.52;;;;;;;3.18;92.69;100131.91;6184499;23;20025;-78
2021/12/25 10:54:13;;;;;;;15.00;11.55;;;;;;;3.18;92.31;100131.91;6184028;23;20048;-79
2021/12/25 10:56:43;;;;;;;14.05;10.95;;;;;;;3.26;92.70;100123.56;6186005;23;20013;-80
2021/12/25 10:59:12;;;;;;;14.40;10.68;;;;;;;3.28;92.17;100125.09;6185118;23;20087;-80
2021/12/25 11:01:45;;;;;;;13.70;10.30;;;;;;;3.17;91.99;100130.28;6185644;23;20020;-79
2021/12/25 11:04:31;;;;;;;13.38;10.00;;;;;;;3.00;91.40;100134.16;6184711;23;20021;-80
2021/12/25 11:06:59;;;;;;;13.55;10.35;;;;;;;3.05;92.42;100135.56;6185475;23;20479;-79
2021/12/25 11:09:26;;;;;;;13.93;10.30;;;;;;;3.06;92.00;100138.03;6184847;23;20401;-78
2021/12/25 11:12:16;;;;;;;13.93;10.23;;;;;;;3.20;91.46;100136.97;6185109;23;20067;-78
2021/12/25 11:14:43;;;;;;;12.45;9.68;;;;;;;3.17;91.89;100135.44;6185394;23;20544;-79
2021/12/25 11:17:25;;;;;;;12.45;10.02;;;;;;;3.20;91.93;100144.72;6185258;23;20032;-79
2021/12/25 11:19:59;;;;;;;12.48;9.88;;;;;;;3.15;91.54;100141.69;6183448;23;20021;-79
2021/12/25 11:22:52;;;;;;;13.32;10.52;;;;;;;3.17;91.53;100139.78;6127223;23;20025;-79
2021/12/25 11:25:25;;;;;;;13.10;10.52;;;;;;;3.10;92.10;100144.63;6215212;23;20109;-81
2021/12/25 11:28:10;;;;;;;;;;;;;;;;;;;;;
2021/12/25 11:55:16;;;;;;;15.13;11.30;;;;;;;3.21;92.96;100133.44;6218937;23;20031;-80
2021/12/25 12:01:35;;;;;;;15.98;11.93;;;;;;;3.16;92.56;100107.94;6214648;23;20021;-81
2021/12/25 14:05:42;;;;;;;6.90;4.47;;;;;;;3.15;85.08;100170.13;6017865;23;20030;-81
2021/12/25 16:16:35;;;;;;;5.25;4.40;;;;;;;1.71;81.53;100262.66;6216067;23;20023;-79
2021/12/25 16:22:42;;;;;;;5.57;4.25;;;;;;;1.59;80.75;100241.13;6174476;23;20426;-80
2021/12/25 16:25:12;;;;;;;5.78;4.38;;;;;;;1.66;80.99;100260.41;6159132;23;20096;-78
2021/12/25 16:31:02;;;;;;;11.95;7.75;;;;;;;1.72;81.31;100269.47;6223638;23;20021;-82
2021/12/25 16:33:30;;;;;;;5.57;4.35;;;;;;;1.59;81.71;100261.75;6228602;23;20024;-81
2021/12/25 16:35:58;;;;;;;6.97;4.65;;;;;;;1.70;81.59;100280.81;6226853;23;20523;-82
2021/12/25 16:38:25;;;;;;;11.88;7.03;;;;;;;1.58;81.93;100260.09;6226264;23;20076;-81
2021/12/25 16:40:53;;;;;;;6.32;4.55;;;;;;;1.60;80.82;100273.72;6227034;23;20088;-82
2021/12/25 16:43:21;;;;;;;7.47;5.50;;;;;;;1.64;81.40;100275.16;6227202;23;20028;-82
2021/12/25 16:45:49;;;;;;;7.55;5.43;;;;;;;1.66;81.42;100277.63;6225462;23;20021;-82
2021/12/25 16:48:17;;;;;;;5.82;4.78;;;;;;;1.65;81.17;100286.28;6225493;23;20028;-82
2021/12/25 16:50:45;;;;;;;7.07;5.30;;;;;;;1.58;80.99;100280.72;6225784;23;20277;-81
2021/12/25 16:53:12;;;;;;;7.60;5.60;;;;;;;1.60;82.01;100283.22;6226798;23;20024;-82
2021/12/25 16:55:40;;;;;;;6.22;4.72;;;;;;;1.58;80.93;100287.66;6226534;23;20020;-82
2021/12/25 16:58:07;;;;;;;5.90;5.22;;;;;;;1.57;81.30;100286.00;6224748;23;20016;-82
2021/12/25 17:00:35;;;;;;;6.65;4.47;;;;;;;1.55;81.05;100295.59;6226455;23;20017;-82
2021/12/25 17:03:05;;;;;;;5.57;4.10;;;;;;;1.53;80.42;100269.09;6226318;23;20017;-82
2021/12/25 17:05:33;;;;;;;5.90;4.30;;;;;;;1.49;80.49;100288.28;6227766;23;20020;-82
2021/12/25 17:08:01;;;;;;;5.97;4.68;;;;;;;1.51;80.45;100271.78;6229835;23;20047;-82
2021/12/25 17:10:28;;;;;;;6.38;4.75;;;;;;;1.54;80.43;100289.63;6225058;23;20021;-82
2021/12/25 17:12:56;;;;;;;6.85;4.95;;;;;;;1.48;80.79;100290.03;6224758;23;20017;-82
2021/12/25 17:15:27;;;;;;;5.85;4.68;;;;;;;1.50;80.66;100287.34;6224123;23;20072;-81
2021/12/25 17:17:54;;;;;;;9.20;6.28;;;;;;;1.40;80.31;100286.38;6224945;23;20021;-82
2021/12/25 17:20:25;;;;;;;7.07;5.05;;;;;;;1.34;80.46;100287.59;6224875;23;20020;-81
2021/12/25 17:22:52;;;;;;;6.32;4.85;;;;;;;1.40;80.86;100294.91;6224270;23;20046;-82
2021/12/25 17:25:21;;;;;;;7.40;5.07;;;;;;;1.38;80.80;100294.19;6222665;23;20020;-82
2021/12/25 19:49:51;;;;;;;9.32;6.47;;;;;;;1.03;81.16;100288.03;6169580;23;20450;-81
2021/12/25 19:53:16;;;;;;;11.38;7.70;;;;;;;0.83;81.59;100268.78;6022088;23;20467;-77
2021/12/25 22:00:51;;;;;;;10.05;7.63;;;;;;;0.92;82.47;100250.97;6196893;23;20001;-81
2021/12/25 22:03:20;;;;;;;9.55;7.72;;;;;;;0.92;82.88;100256.13;6205434;23;20067;-82
2021/12/25 22:05:47;;;;;;;9.30;7.35;;;;;;;0.90;83.28;100247.66;6203454;23;20021;-81
2021/12/25 22:08:16;;;;;;;11.60;7.57;;;;;;;0.97;82.68;100263.50;6230265;23;20020;-81
2021/12/25 22:10:47;;;;;;;12.00;7.40;;;;;;;0.92;82.20;100260.44;6227500;23;20274;-81
2021/12/25 22:13:14;;;;;;;10.90;7.13;;;;;;;0.91;82.65;100263.94;6212560;22;20465;-77
2021/12/25 22:15:43;;;;;;;10.93;7.72;;;;;;;0.91;82.36;100264.75;6184153;23;20083;-76
2021/12/25 22:18:11;;;;;;;11.23;7.30;;;;;;;0.88;82.80;100254.66;6183274;23;20021;-76
2021/12/25 22:20:38;;;;;;;10.50;6.80;;;;;;;0.88;82.27;100253.84;6184740;23;20024;-78
2021/12/25 22:23:05;;;;;;;11.25;7.88;;;;;;;0.87;82.95;100258.16;6184735;23;20067;-77
2021/12/25 22:25:33;;;;;;;9.18;7.30;;;;;;;0.86;82.21;100255.69;6184550;23;20024;-80
2021/12/25 22:28:00;;;;;;;10.15;7.53;;;;;;;0.88;82.56;100259.81;6183926;23;20067;-78
2021/12/25 22:30:31;;;;;;;9.73;6.88;;;;;;;0.87;82.38;100250.44;6184459;23;20017;-78
2021/12/25 22:32:58;;;;;;;10.15;7.35;;;;;;;0.87;82.40;100250.44;6185135;23;20028;-78
2021/12/25 22:35:27;;;;;;;9.32;7.28;;;;;;;0.87;82.08;100247.03;6184505;23;20071;-77
2021/12/25 22:37:56;;;;;;;8.43;6.72;;;;;;;0.81;82.00;100248.28;6183875;23;20025;-77
2021/12/25 22:40:23;;;;;;;9.52;6.97;;;;;;;0.81;82.09;100256.00;6184321;23;20101;-77
2021/12/25 22:42:51;;;;;;;9.82;7.43;;;;;;;0.82;81.84;100244.78;6185487;23;20021;-78